createdAt,value
2023-01-17T00:02:18.660Z,78.66
2023-01-17T00:05:29.683Z,78.85
2023-01-17T00:08:15.270Z,79.11
2023-01-17T00:10:42.354Z,79.51
2023-01-17T00:13:09.545Z,79.17
2023-01-17T00:15:39.134Z,79.19
2023-01-17T00:18:06.226Z,79.51
2023-01-17T00:20:51.872Z,79.48
2023-01-17T00:23:43.173Z,79.72
2023-01-17T00:26:17.871Z,79.84
2023-01-17T00:28:45.902Z,80.13
2023-01-17T00:31:15.595Z,80.43
2023-01-17T00:33:42.798Z,80.52
2023-01-17T00:36:10.855Z,80.52
2023-01-17T00:38:39.785Z,80.40
2023-01-17T00:41:14.249Z,79.98
2023-01-17T00:43:59.775Z,79.81
2023-01-17T00:46:45.688Z,79.98
2023-01-17T00:49:31.328Z,80.35
2023-01-17T00:52:16.773Z,79.94
2023-01-17T00:55:02.261Z,79.80
2023-01-17T00:57:48.019Z,79.98
2023-01-17T01:00:36.883Z,79.69
2023-01-17T01:03:30.467Z,79.55
2023-01-17T01:06:15.889Z,79.18
2023-01-17T01:09:01.467Z,79.12
2023-01-17T01:11:46.843Z,79.07
2023-01-17T01:14:32.167Z,79.17
2023-01-17T01:17:17.596Z,79.18
2023-01-17T01:20:03.073Z,79.70
2023-01-17T01:22:48.362Z,79.58
2023-01-17T01:25:34.191Z,79.77
2023-01-17T01:28:30.621Z,79.59
2023-01-17T01:31:23.711Z,78.98
2023-01-17T01:33:52.229Z,79.24
2023-01-17T01:36:20.349Z,79.79
2023-01-17T01:38:47.697Z,79.91
2023-01-17T01:41:14.818Z,80.08
2023-01-17T01:43:42.093Z,79.81
2023-01-17T01:46:16.161Z,80.23
2023-01-17T01:48:54.451Z,80.10
2023-01-17T01:51:44.645Z,79.90
2023-01-17T01:54:26.704Z,79.72
2023-01-17T01:56:58.559Z,79.71
2023-01-17T01:59:26.312Z,79.68
2023-01-17T02:01:57.597Z,79.05
2023-01-17T02:04:27.049Z,78.74
2023-01-17T02:07:17.083Z,78.30
2023-01-17T02:09:44.729Z,78.50
2023-01-17T02:12:12.679Z,78.47
2023-01-17T02:14:39.807Z,78.63
2023-01-17T02:17:51.323Z,78.62
2023-01-17T02:20:53.398Z,78.44
2023-01-17T02:23:51.238Z,77.85
2023-01-17T02:26:42.881Z,78.26
2023-01-17T02:29:42.123Z,78.43
2023-01-17T02:32:48.031Z,78.51
2023-01-17T02:35:36.496Z,78.74
2023-01-17T02:38:54.241Z,78.71
2023-01-17T02:41:29.081Z,79.15
2023-01-17T02:43:56.541Z,79.14
2023-01-17T02:46:24.068Z,79.51
2023-01-17T02:48:51.556Z,79.46
2023-01-17T02:51:46.442Z,79.31
2023-01-17T02:54:38.559Z,79.54
2023-01-17T02:57:39.187Z,79.74
2023-01-17T03:00:24.690Z,79.96
2023-01-17T03:03:11.173Z,80.24
2023-01-17T03:05:49.421Z,80.58
2023-01-17T03:08:17.686Z,80.82
2023-01-17T03:10:45.608Z,81.05
2023-01-17T03:13:12.999Z,81.61
2023-01-17T03:15:40.676Z,81.82
2023-01-17T03:18:15.261Z,81.91
2023-01-17T03:20:42.491Z,82.30
2023-01-17T03:23:09.669Z,82.56
2023-01-17T03:25:36.988Z,82.84
2023-01-17T03:28:04.516Z,83.24
2023-01-17T03:30:31.727Z,83.67
2023-01-17T03:32:58.845Z,83.56
2023-01-17T03:35:27.656Z,84.34
2023-01-17T03:37:56.079Z,84.50
2023-01-17T03:40:23.217Z,84.37
2023-01-17T03:42:50.348Z,84.21
2023-01-17T03:45:17.632Z,84.19
2023-01-17T03:47:44.654Z,84.27
2023-01-17T03:50:12.928Z,83.81
2023-01-17T03:52:40.002Z,83.53
2023-01-17T03:55:08.568Z,83.35
2023-01-17T03:57:35.713Z,83.28
2023-01-17T04:00:03.632Z,82.81
2023-01-17T04:02:33.998Z,82.67
2023-01-17T04:05:01.115Z,82.41
2023-01-17T04:07:28.329Z,82.35
2023-01-17T04:09:55.383Z,82.44
2023-01-17T04:12:22.478Z,81.89
2023-01-17T04:14:49.611Z,82.13
2023-01-17T04:17:19.343Z,81.95
2023-01-17T04:19:46.933Z,82.16
2023-01-17T04:22:14.031Z,82.10
2023-01-17T04:24:41.161Z,81.87
2023-01-17T04:27:10.002Z,82.14
2023-01-17T04:29:37.102Z,82.69
2023-01-17T04:32:04.531Z,82.87
2023-01-17T04:34:31.587Z,82.80
2023-01-17T04:36:58.699Z,82.92
2023-01-17T04:39:25.818Z,82.64
2023-01-17T04:41:52.967Z,82.70
2023-01-17T04:44:19.981Z,82.97
2023-01-17T04:46:47.038Z,83.37
2023-01-17T04:49:14.177Z,83.84
2023-01-17T04:51:41.386Z,84.24
2023-01-17T04:54:08.436Z,84.30
2023-01-17T04:56:35.560Z,85.26
2023-01-17T04:59:02.660Z,85.42
2023-01-17T05:01:29.910Z,86.70
2023-01-17T05:03:57.197Z,86.69
2023-01-17T05:06:24.316Z,86.34
2023-01-17T05:08:51.463Z,86.31
2023-01-17T05:11:18.634Z,85.51
2023-01-17T05:13:48.053Z,85.36
2023-01-17T05:16:18.835Z,85.43
2023-01-17T05:18:46.117Z,85.30
2023-01-17T05:21:13.249Z,85.11
2023-01-17T05:23:42.058Z,85.04
2023-01-17T05:26:09.223Z,84.98
2023-01-17T05:28:36.493Z,84.84
2023-01-17T05:31:03.817Z,84.78
2023-01-17T05:33:31.006Z,84.66
2023-01-17T05:35:58.167Z,84.97
2023-01-17T05:38:25.293Z,85.16
2023-01-17T05:40:52.448Z,85.18
2023-01-17T05:43:20.820Z,85.13
2023-01-17T05:45:49.482Z,84.97
2023-01-17T05:48:16.575Z,84.59
2023-01-17T05:50:43.696Z,84.34
2023-01-17T05:53:15.848Z,83.89
2023-01-17T05:55:43.637Z,82.95
2023-01-17T05:58:20.768Z,82.41
2023-01-17T06:00:48.765Z,82.19
2023-01-17T06:03:16.161Z,81.79
2023-01-17T06:05:44.501Z,81.58
2023-01-17T06:08:11.663Z,81.80
2023-01-17T06:10:39.059Z,81.47
2023-01-17T06:13:20.220Z,81.48
2023-01-17T06:15:47.915Z,81.66
2023-01-17T06:18:17.149Z,81.69
2023-01-17T06:20:44.555Z,81.96
2023-01-17T06:23:14.301Z,81.53
2023-01-17T06:25:44.483Z,80.90
2023-01-17T06:28:20.047Z,80.88
2023-01-17T06:30:48.303Z,80.74
2023-01-17T06:33:15.855Z,80.30
2023-01-17T06:35:51.102Z,79.72
2023-01-17T06:38:18.574Z,79.63
2023-01-17T06:40:45.879Z,79.75
2023-01-17T06:43:13.077Z,79.21
2023-01-17T06:45:40.208Z,79.37
2023-01-17T06:48:07.318Z,79.08
2023-01-17T06:50:34.745Z,78.87
2023-01-17T06:53:04.533Z,79.25
2023-01-17T06:55:33.369Z,79.49
2023-01-17T06:58:02.050Z,79.96
2023-01-17T07:00:31.264Z,79.69
2023-01-17T07:02:58.477Z,79.28
2023-01-17T07:05:27.938Z,79.40
2023-01-17T07:07:55.333Z,79.21
2023-01-17T07:10:23.084Z,79.27
2023-01-17T07:12:50.943Z,79.03
2023-01-17T07:15:18.083Z,79.24
2023-01-17T07:17:45.173Z,79.02
2023-01-17T07:20:12.965Z,77.83
2023-01-17T07:22:44.563Z,77.65
2023-01-17T07:25:11.718Z,77.87
2023-01-17T07:27:38.720Z,78.00
2023-01-17T07:30:06.812Z,77.03
2023-01-17T07:32:33.976Z,77.11
2023-01-17T07:35:01.061Z,77.94
2023-01-17T07:37:28.236Z,77.77
2023-01-17T07:39:55.382Z,77.49
2023-01-17T07:42:24.091Z,76.58
2023-01-17T07:44:51.483Z,75.82
2023-01-17T07:47:19.401Z,76.26
2023-01-17T07:49:46.498Z,76.61
2023-01-17T07:52:13.723Z,76.37
2023-01-17T07:54:40.952Z,75.53
2023-01-17T07:57:12.102Z,74.28
2023-01-17T07:59:39.165Z,73.82
2023-01-17T08:02:17.280Z,74.02
2023-01-17T08:04:44.673Z,74.18
2023-01-17T08:07:13.384Z,74.22
2023-01-17T08:09:42.403Z,73.78
2023-01-17T08:12:10.142Z,73.67
2023-01-17T08:14:37.260Z,73.64
2023-01-17T08:17:16.441Z,72.89
2023-01-17T08:19:44.369Z,72.57
2023-01-17T08:22:11.831Z,73.67
2023-01-17T08:24:39.069Z,73.20
2023-01-17T08:27:08.385Z,73.53
2023-01-17T08:29:35.838Z,72.73
2023-01-17T08:32:03.512Z,71.56
2023-01-17T08:34:33.211Z,71.03
2023-01-17T08:37:00.314Z,70.52
2023-01-17T08:39:29.592Z,70.71
2023-01-17T08:41:56.968Z,70.51
2023-01-17T08:44:24.079Z,69.21
2023-01-17T08:46:51.237Z,69.98
2023-01-17T08:49:18.429Z,70.33
2023-01-17T08:51:45.476Z,70.71
2023-01-17T08:54:14.655Z,70.45
2023-01-17T08:56:46.356Z,69.68
2023-01-17T08:59:13.762Z,69.92
2023-01-17T09:01:41.359Z,69.19
2023-01-17T09:04:09.196Z,68.50
2023-01-17T09:06:38.852Z,69.39
2023-01-17T09:09:06.958Z,68.44
2023-01-17T09:11:34.438Z,67.25
2023-01-17T09:14:01.479Z,67.51
2023-01-17T09:16:29.856Z,66.48
2023-01-17T09:18:58.119Z,66.95
2023-01-17T09:21:26.376Z,68.11
2023-01-17T09:23:54.422Z,67.36
2023-01-17T09:26:28.260Z,68.00
2023-01-17T09:28:55.689Z,67.94
2023-01-17T09:31:24.368Z,68.23
2023-01-17T09:33:52.627Z,67.67
2023-01-17T09:36:20.341Z,67.26
2023-01-17T09:38:47.878Z,68.72
2023-01-17T09:41:33.002Z,68.04
2023-01-17T09:44:24.217Z,68.08
2023-01-17T09:46:55.400Z,67.69
2023-01-17T09:49:41.237Z,68.08
2023-01-17T09:52:17.969Z,67.69
2023-01-17T09:54:47.778Z,67.46
2023-01-17T09:57:55.914Z,66.88
2023-01-17T10:01:04.759Z,66.19
2023-01-17T10:04:05.102Z,65.18
2023-01-17T10:07:11.772Z,66.42
2023-01-17T10:10:09.388Z,66.08
2023-01-17T10:13:12.146Z,64.73
2023-01-17T10:16:00.849Z,63.82
2023-01-17T10:18:53.113Z,63.24
2023-01-17T10:21:38.209Z,63.07
2023-01-17T10:24:40.385Z,63.52
2023-01-17T10:27:28.741Z,63.59
2023-01-17T10:29:55.869Z,62.93
2023-01-17T10:32:28.966Z,62.32
2023-01-17T10:35:04.191Z,63.28
2023-01-17T10:37:43.908Z,63.99
2023-01-17T10:40:16.325Z,64.21
2023-01-17T10:42:51.596Z,64.11
2023-01-17T10:45:28.263Z,63.92
2023-01-17T10:48:33.732Z,64.65
2023-01-17T10:51:31.463Z,64.72
2023-01-17T10:54:42.640Z,66.28
2023-01-17T10:57:20.929Z,66.34
2023-01-17T10:59:48.139Z,65.99
2023-01-17T11:02:31.271Z,66.10
2023-01-17T11:05:08.635Z,64.95
2023-01-17T11:07:39.330Z,65.59
2023-01-17T11:10:53.522Z,65.31
2023-01-17T11:13:36.571Z,64.60
2023-01-17T11:16:10.237Z,62.81
2023-01-17T11:18:40.389Z,62.65
2023-01-17T11:21:20.361Z,62.71
2023-01-17T11:23:56.192Z,62.36
2023-01-17T11:26:34.304Z,62.22
2023-01-17T11:29:39.179Z,61.97
2023-01-17T11:32:31.324Z,62.59
2023-01-17T11:35:20.986Z,62.04
2023-01-17T11:38:12.997Z,62.40
2023-01-17T11:40:48.578Z,63.07
2023-01-17T11:43:24.504Z,63.10
2023-01-17T11:46:17.341Z,63.25
2023-01-17T11:48:55.051Z,62.18
2023-01-17T11:51:39.113Z,61.60
2023-01-17T11:54:27.182Z,61.53
2023-01-17T11:57:00.373Z,61.39
2023-01-17T11:59:36.980Z,61.74
2023-01-17T12:02:41.365Z,61.29
2023-01-17T12:05:17.828Z,61.79
2023-01-17T12:08:09.399Z,62.05
2023-01-17T12:11:04.119Z,61.30
2023-01-17T12:14:02.826Z,60.97
2023-01-17T12:16:51.803Z,61.20
2023-01-17T12:20:00.428Z,60.24
2023-01-17T12:22:44.729Z,61.58
2023-01-17T12:25:41.243Z,61.68
2023-01-17T12:28:21.146Z,61.41
2023-01-17T12:31:26.523Z,61.37
2023-01-17T12:34:09.564Z,61.68
2023-01-17T12:37:07.297Z,62.37
2023-01-17T12:39:48.515Z,61.95
2023-01-17T12:42:27.758Z,62.33
2023-01-17T12:45:07.081Z,62.79
2023-01-17T12:47:42.317Z,63.08
2023-01-17T12:50:36.479Z,63.53
2023-01-17T12:53:41.873Z,63.54
2023-01-17T12:56:35.227Z,63.82
2023-01-17T12:59:38.824Z,63.29
2023-01-17T13:02:33.392Z,63.62
2023-01-17T13:05:14.692Z,63.47
2023-01-17T13:08:27.213Z,64.16
2023-01-17T13:11:46.108Z,63.97
2023-01-17T13:14:13.221Z,63.78
2023-01-17T13:16:50.680Z,64.31
2023-01-17T13:19:44.633Z,64.45
2023-01-17T13:22:21.710Z,64.50
2023-01-17T13:24:55.152Z,64.67
2023-01-17T13:28:03.542Z,64.93
2023-01-17T13:30:52.413Z,64.73
2023-01-17T13:33:38.400Z,64.87
2023-01-17T13:36:47.694Z,64.35
2023-01-17T13:40:01.208Z,63.07
2023-01-17T13:43:05.828Z,59.75
2023-01-17T13:45:37.649Z,57.83
2023-01-17T13:48:19.610Z,55.84
2023-01-17T13:51:05.799Z,55.07
2023-01-17T13:53:36.323Z,53.66
2023-01-17T13:56:18.753Z,53.79
2023-01-17T13:58:49.739Z,53.63
2023-01-17T14:01:43.139Z,52.91
2023-01-17T14:04:11.953Z,53.36
2023-01-17T14:07:16.344Z,52.43
2023-01-17T14:09:45.729Z,51.84
2023-01-17T14:12:15.513Z,51.50
2023-01-17T14:14:48.311Z,52.35
2023-01-17T14:17:30.417Z,53.83
2023-01-17T14:20:27.709Z,54.07
2023-01-17T14:23:02.796Z,55.23
2023-01-17T14:25:39.261Z,56.65
2023-01-17T14:28:31.830Z,58.43
2023-01-17T14:31:02.554Z,59.87
2023-01-17T14:33:48.153Z,61.23
2023-01-17T14:36:31.881Z,62.16
2023-01-17T14:38:59.009Z,63.45
2023-01-17T14:41:29.033Z,63.88
2023-01-17T14:43:59.442Z,64.43
2023-01-17T14:46:32.126Z,64.77
2023-01-17T14:49:05.484Z,65.22
2023-01-17T14:51:34.648Z,65.34
2023-01-17T14:54:16.692Z,65.91
2023-01-17T14:56:44.176Z,66.61
2023-01-17T14:59:20.644Z,66.93
2023-01-17T15:02:06.667Z,67.38
2023-01-17T15:04:40.103Z,67.83
2023-01-17T15:07:14.580Z,67.99
2023-01-17T15:09:43.914Z,68.06
2023-01-17T15:12:15.822Z,68.82
2023-01-17T15:14:45.946Z,68.91
2023-01-17T15:17:26.855Z,69.67
2023-01-17T15:20:02.873Z,70.01
2023-01-17T15:22:30.509Z,70.53
2023-01-17T15:24:58.605Z,71.33
2023-01-17T15:27:26.466Z,71.05
2023-01-17T15:29:56.873Z,71.61
2023-01-17T15:32:30.936Z,72.12
2023-01-17T15:34:59.518Z,72.09
2023-01-17T15:37:30.891Z,71.66
2023-01-17T15:40:16.277Z,71.14
2023-01-17T15:42:50.279Z,71.34
2023-01-17T15:45:22.718Z,70.83
2023-01-17T15:47:49.883Z,70.79
2023-01-17T15:50:20.620Z,72.47
2023-01-17T15:52:53.415Z,72.85
2023-01-17T15:55:38.948Z,72.43
2023-01-17T15:58:24.286Z,73.63
2023-01-17T16:00:51.508Z,74.19
2023-01-17T16:03:26.798Z,74.35
2023-01-17T16:05:57.134Z,74.40
2023-01-17T16:08:28.400Z,74.26
2023-01-17T16:11:01.613Z,74.93
2023-01-17T16:13:32.724Z,74.31
2023-01-17T16:16:23.171Z,74.77
2023-01-17T16:18:58.829Z,74.33
2023-01-17T16:21:30.711Z,76.09
2023-01-17T16:23:59.470Z,77.87
2023-01-17T16:26:28.557Z,77.84
2023-01-17T16:28:55.758Z,76.77
2023-01-17T16:31:23.044Z,76.10
2023-01-17T16:33:50.560Z,76.69
2023-01-17T16:36:20.249Z,78.58
2023-01-17T16:38:50.971Z,79.39
2023-01-17T16:41:19.679Z,78.14
2023-01-17T16:43:57.473Z,77.57
2023-01-17T16:46:25.500Z,77.64
2023-01-17T16:48:52.909Z,77.62
2023-01-17T16:51:20.207Z,78.89
2023-01-17T16:53:47.665Z,78.13
2023-01-17T16:56:17.536Z,79.14
2023-01-17T16:58:44.736Z,79.78
2023-01-17T17:01:16.021Z,79.99
2023-01-17T17:03:44.148Z,80.05
2023-01-17T17:06:12.400Z,81.20
2023-01-17T17:08:39.668Z,80.17
2023-01-17T17:11:18.505Z,80.24
2023-01-17T17:13:48.551Z,79.23
2023-01-17T17:16:22.500Z,79.50
2023-01-17T17:18:59.642Z,79.49
2023-01-17T17:21:29.887Z,79.56
2023-01-17T17:24:00.377Z,80.08
2023-01-17T17:26:34.093Z,79.93
2023-01-17T17:29:02.732Z,79.67
2023-01-17T17:31:30.082Z,79.28
2023-01-17T17:33:59.443Z,79.67
2023-01-17T17:36:27.037Z,80.60
2023-01-17T17:38:56.393Z,80.20
2023-01-17T17:41:29.251Z,80.16
2023-01-17T17:43:57.431Z,79.65
2023-01-17T17:46:26.220Z,80.56
2023-01-17T17:48:53.388Z,81.37
2023-01-17T17:51:35.096Z,83.16
2023-01-17T17:54:09.962Z,83.16
2023-01-17T17:56:38.375Z,84.04
2023-01-17T17:59:08.554Z,83.27
2023-01-17T18:01:40.488Z,84.47
2023-01-17T18:04:09.161Z,83.58
2023-01-17T18:06:38.017Z,82.60
2023-01-17T18:09:07.956Z,82.72
2023-01-17T18:11:37.811Z,82.82
2023-01-17T18:14:08.927Z,82.83
2023-01-17T18:16:41.048Z,82.16
2023-01-17T18:19:16.731Z,82.13
2023-01-17T18:21:43.960Z,82.05
2023-01-17T18:24:14.937Z,82.65
2023-01-17T18:26:45.687Z,82.49
2023-01-17T18:29:15.361Z,82.39
2023-01-17T18:31:44.003Z,82.51
2023-01-17T18:34:20.778Z,81.95
2023-01-17T18:36:47.946Z,81.32
2023-01-17T18:39:24.093Z,81.49
2023-01-17T18:41:52.082Z,81.43
2023-01-17T18:44:21.933Z,81.72
2023-01-17T18:46:54.360Z,81.34
2023-01-17T18:49:21.773Z,81.28
2023-01-17T18:51:50.021Z,81.14
2023-01-17T18:54:18.900Z,81.75
2023-01-17T18:56:46.488Z,81.90
2023-01-17T18:59:15.489Z,81.33
2023-01-17T19:01:43.048Z,81.22
2023-01-17T19:04:12.169Z,81.13
2023-01-17T19:06:42.304Z,82.11
2023-01-17T19:09:12.532Z,82.13
2023-01-17T19:11:40.308Z,81.74
2023-01-17T19:14:07.683Z,81.26
2023-01-17T19:16:38.735Z,80.45
2023-01-17T19:19:13.944Z,80.19
2023-01-17T19:21:41.536Z,80.75
2023-01-17T19:24:12.427Z,81.07
2023-01-17T19:26:39.923Z,81.24
2023-01-17T19:29:07.172Z,81.44
2023-01-17T19:31:43.126Z,81.90
2023-01-17T19:34:13.245Z,82.21
2023-01-17T19:36:40.483Z,81.50
2023-01-17T19:39:09.046Z,81.65
2023-01-17T19:41:42.051Z,81.35
2023-01-17T19:44:11.941Z,81.57
2023-01-17T19:46:39.229Z,81.67
2023-01-17T19:49:08.016Z,81.51
2023-01-17T19:51:35.934Z,81.47
2023-01-17T19:54:05.826Z,80.96
2023-01-17T19:56:33.049Z,81.21
2023-01-17T19:59:01.168Z,81.46
2023-01-17T20:01:32.059Z,81.14
2023-01-17T20:04:01.276Z,81.42
2023-01-17T20:06:32.454Z,81.39
2023-01-17T20:08:59.661Z,81.29
2023-01-17T20:11:27.916Z,81.28
2023-01-17T20:13:57.740Z,82.13
2023-01-17T20:16:27.627Z,82.28
2023-01-17T20:18:55.003Z,83.46
2023-01-17T20:21:25.239Z,82.86
2023-01-17T20:23:55.009Z,82.39
2023-01-17T20:26:33.774Z,82.85
2023-01-17T20:29:09.461Z,83.35
2023-01-17T20:31:37.900Z,82.61
2023-01-17T20:34:07.892Z,83.47
2023-01-17T20:36:36.343Z,84.05
2023-01-17T20:39:06.083Z,83.69
2023-01-17T20:41:36.916Z,83.66
2023-01-17T20:44:06.378Z,84.67
2023-01-17T20:46:40.449Z,84.83
2023-01-17T20:49:19.101Z,85.13
2023-01-17T20:51:47.015Z,85.11
2023-01-17T20:54:17.638Z,85.89
2023-01-17T20:56:46.724Z,86.04
2023-01-17T20:59:18.458Z,86.05
2023-01-17T21:01:46.092Z,86.65
2023-01-17T21:04:14.150Z,87.23
2023-01-17T21:06:43.053Z,88.10
2023-01-17T21:09:14.185Z,87.70
2023-01-17T21:11:41.265Z,88.36
2023-01-17T21:14:08.709Z,88.55
2023-01-17T21:16:35.986Z,88.75
2023-01-17T21:19:04.654Z,88.69
2023-01-17T21:21:32.029Z,88.89
2023-01-17T21:23:59.554Z,88.91
2023-01-17T21:26:28.341Z,88.68
2023-01-17T21:28:57.512Z,87.98
2023-01-17T21:31:32.932Z,87.81
2023-01-17T21:34:04.196Z,88.20
2023-01-17T21:36:35.497Z,87.15
2023-01-17T21:39:07.543Z,87.83
2023-01-17T21:41:37.600Z,86.55
2023-01-17T21:44:14.113Z,86.60
2023-01-17T21:46:41.771Z,86.43
2023-01-17T21:49:11.303Z,86.58
2023-01-17T21:51:52.171Z,86.41
2023-01-17T21:54:45.137Z,86.69
2023-01-17T21:57:39.174Z,86.95
2023-01-17T22:00:11.587Z,86.04
2023-01-17T22:02:39.476Z,86.18
2023-01-17T22:05:09.080Z,85.31
2023-01-17T22:07:38.424Z,85.01
2023-01-17T22:10:06.501Z,84.55
2023-01-17T22:12:33.716Z,84.15
2023-01-17T22:15:00.943Z,84.66
2023-01-17T22:17:30.134Z,84.22
2023-01-17T22:19:57.253Z,84.62
2023-01-17T22:22:24.455Z,84.70
2023-01-17T22:24:51.593Z,84.15
2023-01-17T22:27:19.892Z,84.11
2023-01-17T22:29:47.013Z,83.92
2023-01-17T22:32:14.225Z,83.94
2023-01-17T22:34:41.301Z,84.07
2023-01-17T22:37:09.473Z,84.01
2023-01-17T22:39:38.552Z,83.84
2023-01-17T22:42:06.127Z,83.82
2023-01-17T22:44:33.272Z,83.77
2023-01-17T22:47:00.431Z,83.94
2023-01-17T22:49:27.577Z,84.47
2023-01-17T22:51:54.644Z,84.96
2023-01-17T22:54:22.042Z,85.11
2023-01-17T22:56:49.241Z,86.05
2023-01-17T22:59:16.315Z,86.91
2023-01-17T23:01:43.468Z,86.34
2023-01-17T23:04:13.881Z,86.70
2023-01-17T23:06:41.277Z,87.48
2023-01-17T23:09:12.779Z,87.15
2023-01-17T23:11:42.923Z,87.59
2023-01-17T23:14:13.907Z,88.20
2023-01-17T23:17:11.049Z,87.70
2023-01-17T23:19:43.993Z,87.46
2023-01-17T23:22:15.559Z,87.81
2023-01-17T23:24:55.480Z,88.26
2023-01-17T23:27:51.833Z,88.26
2023-01-17T23:30:26.282Z,87.82
2023-01-17T23:33:00.236Z,87.93
2023-01-17T23:35:30.136Z,88.59
2023-01-17T23:38:16.577Z,88.56
2023-01-17T23:41:05.182Z,87.63
2023-01-17T23:43:33.100Z,87.05
2023-01-17T23:46:01.144Z,87.06
2023-01-17T23:48:28.586Z,87.09
2023-01-17T23:51:07.095Z,86.56
2023-01-17T23:53:37.003Z,86.15
2023-01-17T23:56:18.201Z,85.83
2023-01-17T23:58:45.393Z,85.41
